createdAt,value
2022-08-22T00:01:18.725Z,11.43
2022-08-22T00:02:48.679Z,11.15
2022-08-22T00:03:15.675Z,11.40
2022-08-22T00:04:00.103Z,10.95
2022-08-22T00:06:40.173Z,10.48
2022-08-22T00:09:29.894Z,10.32
2022-08-22T00:12:16.050Z,9.50
2022-08-22T00:14:52.810Z,17.00
2022-08-22T00:17:38.737Z,11.68
2022-08-22T00:20:16.012Z,10.85
2022-08-22T00:22:51.848Z,10.75
2022-08-22T00:25:53.022Z,13.52
2022-08-22T00:28:35.646Z,13.23
2022-08-22T00:31:21.174Z,11.93
2022-08-22T00:33:55.823Z,10.23
2022-08-22T00:36:31.886Z,9.55
2022-08-22T00:39:12.186Z,10.98
2022-08-22T00:42:05.428Z,10.90
2022-08-22T00:45:13.098Z,11.80
2022-08-22T00:48:08.649Z,11.30
2022-08-22T00:51:12.350Z,13.75
2022-08-22T00:53:56.109Z,16.65
2022-08-22T00:59:50.003Z,11.07
2022-08-22T01:02:40.871Z,10.48
2022-08-22T01:05:25.417Z,11.85
2022-08-22T01:08:14.606Z,13.32
2022-08-22T01:11:01.939Z,15.38
2022-08-22T01:14:17.507Z,13.27
2022-08-22T01:17:05.997Z,14.20
2022-08-22T01:20:26.874Z,11.20
2022-08-22T01:23:28.803Z,11.18
2022-08-22T01:26:37.540Z,12.18
2022-08-22T01:29:38.938Z,15.32
2022-08-22T01:32:39.147Z,13.38
2022-08-22T01:35:46.631Z,10.05
2022-08-22T01:38:53.892Z,12.23
2022-08-22T01:41:43.370Z,14.18
2022-08-22T01:44:41.404Z,9.75
2022-08-22T01:47:16.347Z,12.85
2022-08-22T01:49:50.132Z,10.98
2022-08-22T01:52:39.897Z,16.40
2022-08-22T01:55:13.695Z,13.27
2022-08-22T01:57:56.305Z,10.75
2022-08-22T02:00:35.141Z,15.85
2022-08-22T02:03:20.637Z,14.90
2022-08-22T02:05:57.505Z,16.75
2022-08-22T02:08:41.741Z,12.40
2022-08-22T02:11:14.379Z,15.20
2022-08-22T02:14:04.139Z,14.40
2022-08-22T02:16:43.507Z,14.43
2022-08-22T02:19:26.906Z,14.23
2022-08-22T02:22:01.017Z,12.05
2022-08-22T02:24:50.652Z,15.25
2022-08-22T02:27:35.483Z,15.30
2022-08-22T02:30:13.187Z,11.52
2022-08-22T02:32:55.138Z,13.13
2022-08-22T02:35:35.729Z,15.20
2022-08-22T02:38:16.892Z,14.13
2022-08-22T02:41:04.652Z,16.73
2022-08-22T02:43:42.845Z,14.65
2022-08-22T02:46:25.670Z,12.95
2022-08-22T02:49:07.618Z,15.00
2022-08-22T02:51:52.025Z,12.70
2022-08-22T02:54:28.430Z,13.40
2022-08-22T02:57:14.183Z,11.35
2022-08-22T03:00:25.032Z,14.50
2022-08-22T03:03:07.595Z,17.52
2022-08-22T03:05:52.651Z,19.73
2022-08-22T03:08:29.317Z,15.93
2022-08-22T03:11:18.906Z,17.30
2022-08-22T03:14:07.586Z,16.65
2022-08-22T03:16:47.477Z,15.70
2022-08-22T03:19:22.990Z,13.15
2022-08-22T03:22:08.775Z,13.98
2022-08-22T03:24:50.236Z,16.45
2022-08-22T03:27:32.908Z,16.23
2022-08-22T03:30:13.142Z,14.40
2022-08-22T03:33:15.614Z,13.10
2022-08-22T03:36:04.619Z,19.65
2022-08-22T03:38:46.730Z,13.32
2022-08-22T03:41:35.674Z,13.52
2022-08-22T03:44:39.950Z,14.43
2022-08-22T03:47:41.152Z,13.27
2022-08-22T03:50:36.557Z,14.18
2022-08-22T03:53:49.516Z,13.75
2022-08-22T03:57:01.011Z,13.18
2022-08-22T04:00:10.485Z,14.13
2022-08-22T04:03:25.694Z,11.70
2022-08-22T04:06:29.118Z,13.50
2022-08-22T04:09:32.519Z,12.60
2022-08-22T04:12:49.952Z,12.57
2022-08-22T04:16:07.119Z,14.70
2022-08-22T04:18:50.550Z,11.52
2022-08-22T04:21:50.737Z,12.60
2022-08-22T04:24:40.695Z,13.68
2022-08-22T04:27:19.163Z,15.23
2022-08-22T04:29:54.948Z,13.80
2022-08-22T04:32:36.623Z,12.18
2022-08-22T04:35:14.156Z,12.18
2022-08-22T04:37:54.651Z,10.88
2022-08-22T04:40:30.013Z,14.95
2022-08-22T04:43:06.338Z,10.32
2022-08-22T04:45:40.502Z,14.75
2022-08-22T04:48:16.923Z,11.65
2022-08-22T04:50:53.027Z,14.57
2022-08-22T04:53:51.636Z,11.98
2022-08-22T04:56:30.709Z,14.10
2022-08-22T04:59:05.725Z,12.77
2022-08-22T05:01:43.172Z,13.52
2022-08-22T05:04:16.658Z,12.90
2022-08-22T05:06:53.766Z,17.88
2022-08-22T05:09:34.757Z,17.10
2022-08-22T05:12:14.543Z,14.07
2022-08-22T05:14:47.868Z,16.55
2022-08-22T05:17:22.470Z,12.73
2022-08-22T05:19:56.617Z,15.88
2022-08-22T05:22:36.833Z,14.40
2022-08-22T05:25:13.152Z,12.77
2022-08-22T05:27:47.973Z,10.45
2022-08-22T05:30:24.743Z,15.75
2022-08-22T05:33:01.182Z,13.35
2022-08-22T05:35:48.597Z,14.95
2022-08-22T05:38:24.086Z,13.98
2022-08-22T05:41:00.157Z,15.52
2022-08-22T05:43:31.547Z,11.57
2022-08-22T05:46:04.258Z,15.43
2022-08-22T05:48:43.559Z,11.77
2022-08-22T05:51:21.638Z,16.05
2022-08-22T05:53:55.633Z,14.38
2022-08-22T05:57:12.166Z,12.05
2022-08-22T06:03:05.013Z,20.95
2022-08-22T06:05:41.252Z,16.35
2022-08-22T06:08:20.384Z,14.93
2022-08-22T06:10:56.282Z,13.93
2022-08-22T06:13:35.379Z,13.45
2022-08-22T06:16:12.752Z,18.55
2022-08-22T06:18:46.002Z,16.25
2022-08-22T06:21:23.373Z,15.23
2022-08-22T06:23:57.576Z,13.23
2022-08-22T06:26:31.510Z,18.48
2022-08-22T06:29:05.669Z,14.65
2022-08-22T06:31:45.350Z,16.23
2022-08-22T06:34:20.155Z,16.92
2022-08-22T06:36:53.147Z,12.30
2022-08-22T06:39:29.097Z,18.20
2022-08-22T06:42:06.312Z,16.25
2022-08-22T06:44:42.971Z,14.30
2022-08-22T06:47:17.965Z,15.13
2022-08-22T06:49:48.759Z,17.33
2022-08-22T06:52:23.632Z,18.27
2022-08-22T06:55:00.915Z,16.90
2022-08-22T06:57:36.192Z,13.05
2022-08-22T07:00:13.307Z,17.33
2022-08-22T07:02:46.807Z,15.82
2022-08-22T07:07:50.257Z,13.50
2022-08-22T07:10:23.611Z,15.18
2022-08-22T07:13:10.011Z,16.52
2022-08-22T07:15:46.286Z,14.73
2022-08-22T07:18:20.891Z,15.77
2022-08-22T07:20:55.060Z,19.08
2022-08-22T07:23:36.283Z,16.17
2022-08-22T07:26:28.098Z,17.80
2022-08-22T07:29:08.999Z,13.45
2022-08-22T07:31:52.005Z,15.05
2022-08-22T07:34:38.714Z,16.25
2022-08-22T07:37:15.768Z,15.80
2022-08-22T07:40:06.655Z,14.73
2022-08-22T07:42:47.682Z,14.05
2022-08-22T07:45:20.788Z,13.35
2022-08-22T07:48:11.491Z,17.05
2022-08-22T07:50:51.042Z,17.73
2022-08-22T07:53:26.820Z,13.52
2022-08-22T07:55:57.946Z,14.05
2022-08-22T07:58:39.039Z,15.90
2022-08-22T08:01:12.689Z,13.02
2022-08-22T08:03:50.516Z,15.93
2022-08-22T08:06:20.516Z,17.38
2022-08-22T08:08:53.327Z,13.40
2022-08-22T08:11:26.221Z,19.25
2022-08-22T08:14:01.033Z,13.52
2022-08-22T08:16:45.713Z,14.80
2022-08-22T08:19:21.798Z,10.77
2022-08-22T08:21:55.194Z,13.65
2022-08-22T08:24:28.822Z,15.25
2022-08-22T08:27:23.568Z,13.00
2022-08-22T08:29:59.047Z,11.98
2022-08-22T08:32:36.230Z,15.50
2022-08-22T08:35:13.712Z,12.80
2022-08-22T08:37:48.673Z,12.85
2022-08-22T08:40:50.779Z,11.30
2022-08-22T08:43:35.852Z,14.15
2022-08-22T08:46:30.755Z,14.38
2022-08-22T08:49:30.936Z,14.35
2022-08-22T08:52:35.783Z,12.65
2022-08-22T08:55:22.753Z,14.90
2022-08-22T08:58:27.584Z,13.25
2022-08-22T09:01:14.346Z,12.27
2022-08-22T09:04:16.443Z,14.18
2022-08-22T09:07:08.160Z,11.40
2022-08-22T09:10:04.965Z,11.73
2022-08-22T09:13:00.250Z,12.48
2022-08-22T09:16:04.859Z,11.70
2022-08-22T09:19:05.113Z,14.55
2022-08-22T09:25:38.496Z,11.95
2022-08-22T09:28:19.720Z,9.70
2022-08-22T09:31:47.715Z,13.32
2022-08-22T09:34:25.703Z,15.27
2022-08-22T09:37:16.788Z,13.25
2022-08-22T09:39:57.261Z,9.82
2022-08-22T09:40:15.554Z,10.73
2022-08-22T09:42:39.261Z,12.20
2022-08-22T09:45:50.380Z,8.40
2022-08-22T09:48:55.366Z,7.50
2022-08-22T09:51:38.646Z,11.43
2022-08-22T09:54:31.360Z,12.50
2022-08-22T09:57:22.904Z,10.57
2022-08-22T10:00:26.968Z,11.27
2022-08-22T10:03:08.295Z,10.95
2022-08-22T10:05:49.786Z,8.82
2022-08-22T10:08:39.959Z,9.57
2022-08-22T10:11:21.892Z,10.73
2022-08-22T10:14:05.834Z,8.70
2022-08-22T10:17:07.240Z,7.53
2022-08-22T10:19:45.690Z,10.32
2022-08-22T10:22:39.368Z,9.63
2022-08-22T10:27:59.783Z,9.97
2022-08-22T10:30:45.742Z,8.90
2022-08-22T10:33:29.211Z,8.93
2022-08-22T10:36:05.490Z,8.05
2022-08-22T10:38:44.052Z,8.40
2022-08-22T10:41:28.783Z,11.57
2022-08-22T10:44:05.411Z,10.55
2022-08-22T10:46:44.776Z,8.38
2022-08-22T10:49:28.254Z,10.38
2022-08-22T10:52:15.679Z,9.77
2022-08-22T10:54:51.378Z,9.70
2022-08-22T10:57:41.533Z,8.05
2022-08-22T11:00:22.542Z,10.60
2022-08-22T11:03:01.028Z,8.75
2022-08-22T11:05:39.649Z,10.18
2022-08-22T11:08:24.413Z,9.85
2022-08-22T11:11:07.985Z,14.50
2022-08-22T11:13:45.673Z,10.70
2022-08-22T11:16:31.965Z,10.23
2022-08-22T11:19:26.963Z,10.40
2022-08-22T11:22:12.334Z,7.75
2022-08-22T11:25:13.934Z,12.68
2022-08-22T11:27:52.342Z,13.07
2022-08-22T11:30:27.647Z,8.95
2022-08-22T11:33:16.201Z,11.38
2022-08-22T11:35:51.861Z,8.65
2022-08-22T11:38:32.581Z,8.77
2022-08-22T11:41:07.462Z,9.90
2022-08-22T11:43:51.714Z,11.55
2022-08-22T11:46:31.153Z,11.52
2022-08-22T11:49:31.589Z,12.85
2022-08-22T11:52:14.500Z,8.50
2022-08-22T11:55:07.705Z,8.25
2022-08-22T11:57:44.773Z,11.73
2022-08-22T12:00:27.972Z,9.98
2022-08-22T12:03:15.710Z,10.20
2022-08-22T12:05:49.858Z,8.80
2022-08-22T12:08:29.012Z,9.82
2022-08-22T12:11:08.726Z,8.65
2022-08-22T12:13:52.113Z,7.28
2022-08-22T12:16:45.065Z,11.07
2022-08-22T12:19:24.970Z,12.18
2022-08-22T12:22:32.062Z,11.35
2022-08-22T12:25:12.887Z,23.63
2022-08-22T12:28:01.274Z,10.73
2022-08-22T12:30:39.665Z,9.13
2022-08-22T12:33:28.426Z,11.32
2022-08-22T12:36:18.748Z,11.23
2022-08-22T12:39:03.402Z,18.35
2022-08-22T12:42:08.531Z,8.95
2022-08-22T12:44:54.551Z,9.25
2022-08-22T12:47:42.189Z,10.93
2022-08-22T12:50:27.433Z,8.50
2022-08-22T12:53:20.732Z,10.57
2022-08-22T12:56:10.331Z,12.45
2022-08-22T12:59:07.620Z,10.30
2022-08-22T13:01:45.442Z,12.55
2022-08-22T13:04:19.322Z,11.98
2022-08-22T13:07:12.649Z,10.45
2022-08-22T13:09:43.951Z,13.75
2022-08-22T13:12:25.010Z,9.75
2022-08-22T13:15:00.001Z,11.77
2022-08-22T13:17:33.405Z,12.60
2022-08-22T13:20:12.382Z,10.30
2022-08-22T13:22:46.131Z,13.65
2022-08-22T13:25:27.481Z,8.52
2022-08-22T13:28:00.225Z,10.88
2022-08-22T13:33:11.577Z,9.43
2022-08-22T13:35:52.324Z,10.60
2022-08-22T13:38:26.984Z,13.43
2022-08-22T13:40:59.434Z,13.68
2022-08-22T13:43:32.549Z,12.45
2022-08-22T13:46:04.965Z,10.15
2022-08-22T13:48:50.257Z,11.88
2022-08-22T13:51:27.566Z,9.38
2022-08-22T13:54:11.230Z,9.85
2022-08-22T13:56:50.482Z,10.18
2022-08-22T13:59:49.489Z,8.45
2022-08-22T14:02:34.245Z,9.63
2022-08-22T14:05:11.414Z,9.15
2022-08-22T14:07:50.052Z,7.40
2022-08-22T14:10:28.148Z,9.07
2022-08-22T14:13:32.019Z,11.32
2022-08-22T14:16:03.786Z,9.00
2022-08-22T14:18:45.615Z,11.05
2022-08-22T14:21:40.251Z,9.40
2022-08-22T14:24:25.752Z,8.82
2022-08-22T14:27:05.347Z,9.05
2022-08-22T14:29:44.118Z,11.75
2022-08-22T14:32:35.303Z,8.75
2022-08-22T14:35:21.712Z,8.10
2022-08-22T14:38:01.690Z,8.30
2022-08-22T14:40:37.850Z,7.50
2022-08-22T14:43:10.642Z,9.15
2022-08-22T14:45:44.163Z,10.05
2022-08-22T14:48:30.948Z,9.85
2022-08-22T14:51:05.912Z,9.45
2022-08-22T14:53:42.869Z,7.13
2022-08-22T14:56:18.408Z,9.00
2022-08-22T14:58:52.409Z,9.32
2022-08-22T15:01:25.821Z,9.63
2022-08-22T15:04:05.684Z,8.43
2022-08-22T15:06:39.090Z,8.00
2022-08-22T15:09:31.339Z,11.95
2022-08-22T15:12:03.793Z,7.95
2022-08-22T15:14:51.962Z,9.73
2022-08-22T15:17:40.373Z,7.47
2022-08-22T15:20:28.534Z,8.77
2022-08-22T15:23:02.154Z,9.40
2022-08-22T15:25:37.969Z,8.95
2022-08-22T15:28:20.361Z,8.88
2022-08-22T15:31:03.440Z,8.95
2022-08-22T15:36:16.649Z,10.18
2022-08-22T15:38:49.535Z,8.25
2022-08-22T15:41:42.605Z,9.18
2022-08-22T15:44:31.278Z,7.65
2022-08-22T15:47:12.100Z,11.13
2022-08-22T15:49:59.248Z,7.78
2022-08-22T15:52:32.497Z,12.60
2022-08-22T15:55:23.758Z,6.82
2022-08-22T15:58:12.957Z,10.15
2022-08-22T16:00:47.107Z,10.95
2022-08-22T16:03:29.690Z,10.40
2022-08-22T16:06:04.049Z,10.23
2022-08-22T16:08:51.806Z,11.15
2022-08-22T16:11:33.587Z,9.65
2022-08-22T16:14:25.334Z,11.93
2022-08-22T16:17:03.797Z,9.73
2022-08-22T16:19:35.751Z,8.40
2022-08-22T16:22:13.713Z,11.13
2022-08-22T16:25:05.634Z,9.43
2022-08-22T16:27:36.852Z,8.80
2022-08-22T16:30:17.788Z,11.95
2022-08-22T16:32:57.236Z,11.30
2022-08-22T16:35:56.894Z,12.02
2022-08-22T16:38:37.293Z,8.85
2022-08-22T16:41:07.370Z,11.13
2022-08-22T16:43:37.256Z,6.53
2022-08-22T16:46:36.572Z,11.50
2022-08-22T16:49:07.000Z,8.90
2022-08-22T16:51:36.755Z,6.82
2022-08-22T16:54:10.476Z,10.75
2022-08-22T16:57:07.735Z,9.32
2022-08-22T17:00:00.365Z,9.45
2022-08-22T17:03:05.100Z,8.05
2022-08-22T17:05:48.393Z,8.45
2022-08-22T17:08:41.610Z,7.15
2022-08-22T17:11:24.014Z,8.55
2022-08-22T17:14:06.333Z,9.68
2022-08-22T17:16:54.278Z,9.50
2022-08-22T17:19:40.624Z,6.05
2022-08-22T17:22:25.973Z,11.55
2022-08-22T17:25:20.188Z,8.35
2022-08-22T17:27:56.236Z,6.40
2022-08-22T17:30:31.832Z,8.98
2022-08-22T17:33:17.829Z,8.38
2022-08-22T17:36:03.713Z,8.52
2022-08-22T17:42:24.354Z,7.88
2022-08-22T17:45:04.902Z,10.32
2022-08-22T17:47:42.941Z,6.43
2022-08-22T17:50:21.590Z,10.27
2022-08-22T17:52:59.669Z,10.52
2022-08-22T17:56:00.522Z,10.88
2022-08-22T17:58:43.672Z,9.05
2022-08-22T18:01:18.157Z,8.18
2022-08-22T18:03:55.784Z,9.90
2022-08-22T18:06:32.571Z,8.23
2022-08-22T18:09:16.556Z,12.25
2022-08-22T18:11:52.436Z,10.98
2022-08-22T18:14:33.069Z,9.20
2022-08-22T18:17:03.531Z,9.35
2022-08-22T18:19:49.570Z,9.43
2022-08-22T18:22:27.475Z,8.52
2022-08-22T18:25:03.835Z,9.35
2022-08-22T18:27:39.972Z,11.57
2022-08-22T18:30:20.796Z,9.63
2022-08-22T18:32:59.407Z,8.18
2022-08-22T18:35:37.692Z,10.23
2022-08-22T18:38:20.484Z,8.48
2022-08-22T18:41:00.230Z,9.15
2022-08-22T18:43:39.707Z,11.18
2022-08-22T18:46:32.611Z,8.88
2022-08-22T18:49:19.630Z,9.57
2022-08-22T18:52:15.590Z,11.18
2022-08-22T18:55:01.910Z,13.27
2022-08-22T18:57:49.780Z,7.95
2022-08-22T19:00:23.194Z,10.68
2022-08-22T19:03:18.341Z,9.48
2022-08-22T19:06:15.614Z,8.32
2022-08-22T19:09:13.227Z,11.98
2022-08-22T19:11:55.526Z,11.13
2022-08-22T19:14:47.451Z,10.95
2022-08-22T19:17:39.746Z,9.70
2022-08-22T19:20:37.541Z,10.27
2022-08-22T19:23:40.778Z,10.23
2022-08-22T19:26:37.682Z,11.53
2022-08-22T19:29:45.712Z,7.35
2022-08-22T19:32:55.621Z,10.32
2022-08-22T19:35:40.311Z,7.03
2022-08-22T19:38:12.805Z,8.02
2022-08-22T19:41:05.786Z,12.00
2022-08-22T19:43:42.904Z,7.00
2022-08-22T19:46:15.240Z,8.27
2022-08-22T19:48:53.542Z,8.55
2022-08-22T19:51:36.551Z,8.75
2022-08-22T19:54:23.363Z,10.13
2022-08-22T19:57:10.073Z,10.10
2022-08-22T19:59:50.661Z,10.07
2022-08-22T20:02:39.480Z,11.30
2022-08-22T20:05:39.335Z,9.60
2022-08-22T20:08:31.414Z,8.10
2022-08-22T20:11:17.202Z,9.48
2022-08-22T20:13:49.866Z,10.93
2022-08-22T20:16:23.467Z,12.55
2022-08-22T20:19:07.234Z,8.23
2022-08-22T20:21:46.305Z,11.80
2022-08-22T20:24:24.562Z,12.63
2022-08-22T20:27:13.378Z,11.38
2022-08-22T20:29:53.046Z,10.93
2022-08-22T20:32:26.557Z,11.00
2022-08-22T20:35:01.350Z,10.52
2022-08-22T20:38:05.445Z,11.13
2022-08-22T20:40:57.128Z,11.27
2022-08-22T20:43:31.960Z,11.00
2022-08-22T20:46:15.478Z,16.02
2022-08-22T20:48:48.064Z,11.63
2022-08-22T20:51:22.460Z,15.73
2022-08-22T20:53:55.376Z,12.98
2022-08-22T20:56:46.061Z,14.10
2022-08-22T20:59:36.176Z,13.00
2022-08-22T21:02:17.741Z,13.60
2022-08-22T21:04:53.789Z,11.88
2022-08-22T21:07:25.953Z,12.27
2022-08-22T21:10:13.829Z,12.45
2022-08-22T21:12:46.682Z,12.55
2022-08-22T21:15:16.382Z,11.18
2022-08-22T21:17:46.111Z,12.38
2022-08-22T21:20:22.568Z,12.20
2022-08-22T21:22:55.603Z,11.40
2022-08-22T21:25:25.880Z,13.70
2022-08-22T21:28:00.454Z,12.32
2022-08-22T21:30:37.908Z,15.05
2022-08-22T21:33:11.915Z,11.52
2022-08-22T21:35:59.061Z,11.90
2022-08-22T21:38:30.079Z,12.60
2022-08-22T21:41:06.538Z,13.43
2022-08-22T21:43:42.058Z,12.00
2022-08-22T21:46:29.836Z,16.35
2022-08-22T21:49:12.441Z,13.88
2022-08-22T21:51:44.713Z,12.93
2022-08-22T21:54:42.985Z,14.82
2022-08-22T21:57:37.623Z,14.45
2022-08-22T22:00:48.809Z,14.43
2022-08-22T22:03:21.053Z,11.15
2022-08-22T22:05:54.891Z,16.30
2022-08-22T22:08:24.800Z,14.75
2022-08-22T22:11:06.157Z,16.63
2022-08-22T22:13:39.447Z,15.32
2022-08-22T22:16:15.199Z,15.52
2022-08-22T22:18:44.941Z,13.63
2022-08-22T22:21:17.762Z,15.63
2022-08-22T22:23:47.606Z,12.20
2022-08-22T22:26:17.831Z,16.65
2022-08-22T22:28:50.533Z,13.50
2022-08-22T22:31:23.197Z,10.93
2022-08-22T22:33:52.943Z,13.97
2022-08-22T22:36:26.907Z,15.25
2022-08-22T22:38:57.445Z,10.93
2022-08-22T22:41:28.215Z,12.30
2022-08-22T22:43:58.843Z,11.85
2022-08-22T22:46:32.259Z,11.95
2022-08-22T22:49:05.823Z,11.45
2022-08-22T22:54:11.255Z,14.80
2022-08-22T22:56:41.195Z,13.55
2022-08-22T22:59:13.009Z,14.25
2022-08-22T23:02:06.044Z,15.55
2022-08-22T23:04:40.642Z,15.52
2022-08-22T23:07:11.091Z,15.35
2022-08-22T23:09:44.838Z,16.33
2022-08-22T23:12:17.005Z,14.82
2022-08-22T23:14:47.309Z,15.90
2022-08-22T23:17:20.754Z,13.35
2022-08-22T23:22:24.205Z,17.50
2022-08-22T23:24:54.204Z,18.02
2022-08-22T23:27:24.275Z,19.30
2022-08-22T23:29:54.361Z,19.73
2022-08-22T23:32:27.218Z,18.52
2022-08-22T23:34:57.072Z,14.80
2022-08-22T23:37:27.083Z,14.68
2022-08-22T23:39:56.838Z,14.50
2022-08-22T23:42:29.301Z,14.95
2022-08-22T23:44:59.092Z,14.48
2022-08-22T23:47:32.507Z,13.13
2022-08-22T23:50:06.222Z,13.93
2022-08-22T23:52:39.139Z,16.50
2022-08-22T23:55:10.406Z,13.90
2022-08-22T23:57:40.191Z,12.65
